Wednesday, January 17, 2018, 4:47 PM EST
Back to Local

KNUI, Knui Webster Field Annex

Location: Saint Inigoes, MD, United States Lat: 38.15
Local Time: 4:47 PM EST (21:47 GMT) Lon: -76.417
Time Zone: US/Eastern Elev: 19 ft

Show me the last for .
Show Decoded

2018-01-17 15:53 METAR KNUI 172053Z AUTO 32010G14KT 300V010 7SM OVC065 M02/M12 A3028 RMK AO2
                 SLP253 T10221117 56013 =
2018-01-17 14:53 METAR KNUI 171953Z AUTO 31007KT 280V340 8SM FEW047 OVC055 M02/M11 A3028 RMK AO2
                 SLP253 T10221111 =
2018-01-17 13:53 METAR KNUI 171853Z AUTO 33008KT 280V020 7SM SCT050 OVC065 M02/M09 A3029 RMK AO2
                 SLP256 T10221089 =
2018-01-17 12:53 METAR KNUI 171753Z AUTO 32005KT 7SM BKN055 BKN070 BKN080 M02/M09 A3032 RMK AO2
                 SLP265 60000 T10221089 10000 21022 58018 =
2018-01-17 11:53 METAR KNUI 171653Z AUTO VRB06KT 7SM CLR M02/M09 A3034 RMK AO2 SLP274 T10171089 =
2018-01-17 10:53 METAR KNUI 171553Z AUTO VRB06KT 7SM SCT042 OVC050 M02/M07 A3035 RMK AO2 SNB05E19
                 SLP278 P0000 T10171072 =
2018-01-17 09:53 METAR KNUI 171453Z AUTO 31008KT 5SM HZ FEW016 BKN039 OVC055 M02/M06 A3037 RMK
                 AO2 SNE06B21E52 SLP283 P0000 60000 T10221056 53016 =
2018-01-17 09:06 METAR KNUI 171406Z AUTO 31009G15KT 4SM HZ FEW014 BKN045 OVC055 M02/M05 A3036 RMK
                 AO2 SNE06 P0000 T10171050 =
2018-01-17 08:53 METAR KNUI 171353Z AUTO 31008KT 2 1/2SM -SN FEW012 BKN039 OVC047 M02/M04 A3035
                 RMK AO2 SNB02 SLP276 P0000 T10171044 =
2018-01-17 08:34 METAR KNUI 171334Z AUTO 32007KT 290V350 2SM -SN BR FEW011 BKN037 OVC045 M01/M03
                 A3034 RMK AO2 SNB02 P0000 T10111033 =
2018-01-17 08:22 METAR KNUI 171322Z AUTO VRB06G15KT 1 3/4SM -SN BR FEW012 OVC039 M01/M03 A3033
                 RMK AO2 SNB02 P0000 T10111028 =
2018-01-17 08:12 METAR KNUI 171312Z AUTO VRB04G16KT 2SM -SN BR FEW012 OVC042 M01/M03 A3033 =
2018-01-17 07:53 METAR KNUI 171253Z AUTO 32007KT 4SM BR SCT012 BKN055 OVC095 M01/M03 A3033 RMK
                 AO2 SNE11 SLP269 P0000 T10061028 =
2018-01-17 07:14 METAR KNUI 171214Z AUTO VRB05KT 4SM BR SCT011 OVC045 00/M02 A3032 RMK AO2 SNE11
                 P0000 T00001017 =
2018-01-17 06:53 METAR KNUI 171153Z AUTO 33006KT 3SM -SN BR BKN010 OVC036 00/M02 A3032 RMK AO2
                 SLP268 P0000 60000 T00001017 10017 20000 51010 =
2018-01-17 06:39 METAR KNUI 171139Z AUTO 33006KT 2 1/2SM -SN BR SCT010 OVC041 01/M02 A3032 RMK
                 AO2 P0000 T00061017 =
2018-01-17 05:53 METAR KNUI 171053Z AUTO 31005KT 3SM -SN BR BKN010 OVC095 01/M01 A3032 RMK AO2
                 SNB24 SLP267 P0000 T00061011 =
2018-01-17 04:53 METAR KNUI 170953Z AUTO 30004KT 7SM OVC070 02/M02 A3030 RMK AO2 SLP259 T00171017
                 =
2018-01-17 03:53 METAR KNUI 170853Z AUTO 00000KT 7SM BKN080 OVC090 02/M02 A3029 RMK AO2 SLP257
                 T00171017 56001 =
2018-01-17 02:53 METAR KNUI 170753Z AUTO VRB03KT 8SM OVC090 02/M01 A3030 RMK AO2 SLP259 T00171011
                 =
2018-01-17 01:53 METAR KNUI 170653Z AUTO 30003KT 5SM BR SCT110 00/M01 A3029 RMK AO2 SLP256
                 T00001006 =
2018-01-17 00:53 METAR KNUI 170553Z AUTO 00000KT 4SM BR OVC100 00/M01 A3030 RMK AO2 SLP258
                 T00001006 10006 21011 58012 =
2018-01-16 23:53 METAR KNUI 170453Z AUTO 00000KT 4SM BR CLR 00/M01 A3031 RMK AO2 SLP263 T00001006
                 400391011 =
2018-01-16 22:53 METAR KNUI 170353Z AUTO 00000KT 4SM BR CLR M01/M01 A3033 RMK AO2 SLP269
                 T10061011 =
2018-01-16 21:53 METAR KNUI 170253Z AUTO 00000KT 4SM BR CLR M01/M02 A3033 RMK AO2 SLP270
                 T10111017 58008 =
2018-01-16 20:53 METAR KNUI 170153Z AUTO 06003KT 5SM BR CLR M01/M02 A3034 RMK AO2 SLP274
                 T10111017 =
2018-01-16 19:53 METAR KNUI 170053Z AUTO 00000KT 6SM BR CLR 00/M02 A3036 RMK AO2 SLP279 T00001017
                 =
2018-01-16 18:53 METAR KNUI 162353Z AUTO 00000KT 7SM CLR 00/M01 A3035 RMK AO2 SLP278 T00001011
                 10039 20000 55000 =
2018-01-16 17:53 METAR KNUI 162253Z AUTO 00000KT 9SM CLR 01/00 A3035 RMK AO2 SLP277 T00110000 =
2018-01-16 16:53 METAR KNUI 162153Z AUTO 00000KT 9SM CLR 02/00 A3035 RMK AO2 SLP275 T00220000 =

Support USWX by starting your Amazon purchase here.